createdAt,value
2019-02-18T00:00:21.112Z,82.90
2019-02-18T00:04:27.715Z,84.60
2019-02-18T00:08:32.720Z,85.60
2019-02-18T00:12:37.728Z,87.10
2019-02-18T00:16:42.775Z,88.50
2019-02-18T00:20:47.720Z,87.20
2019-02-18T00:24:52.731Z,86.40
2019-02-18T00:28:57.737Z,85.70
2019-02-18T00:33:03.721Z,84.80
2019-02-18T00:37:08.769Z,83.90
2019-02-18T00:41:13.776Z,83.70
2019-02-18T00:45:18.758Z,83.80
2019-02-18T00:49:23.763Z,83.80
2019-02-18T00:53:28.775Z,83.20
2019-02-18T00:57:34.750Z,83.20
2019-02-18T01:01:39.760Z,82.80
2019-02-18T01:05:44.773Z,82.60
2019-02-18T01:09:49.776Z,82.60
2019-02-18T01:13:54.794Z,82.00
2019-02-18T01:17:59.800Z,81.50
2019-02-18T01:22:04.809Z,80.90
2019-02-18T01:26:09.830Z,81.20
2019-02-18T01:30:16.550Z,81.70
2019-02-18T01:34:21.655Z,82.30
2019-02-18T01:38:26.675Z,82.50
2019-02-18T01:42:31.696Z,82.80
2019-02-18T01:46:36.699Z,81.90
2019-02-18T01:50:41.716Z,81.90
2019-02-18T01:54:46.765Z,82.10
2019-02-18T01:58:51.764Z,82.30
2019-02-18T02:02:56.771Z,82.30
2019-02-18T02:07:01.787Z,82.70
2019-02-18T02:11:06.764Z,82.90
2019-02-18T02:15:17.743Z,82.60
2019-02-18T02:19:22.759Z,82.30
2019-02-18T02:23:27.784Z,82.30
2019-02-18T02:27:32.764Z,82.90
2019-02-18T02:31:37.743Z,83.70
2019-02-18T02:35:42.759Z,84.10
2019-02-18T02:39:47.788Z,84.50
2019-02-18T02:43:52.808Z,85.20
2019-02-18T02:47:57.803Z,84.70
2019-02-18T02:52:02.788Z,84.10
2019-02-18T02:56:07.790Z,83.50
2019-02-18T03:00:15.331Z,83.70
2019-02-18T03:04:20.363Z,83.40
2019-02-18T03:08:25.359Z,83.60
2019-02-18T03:12:30.365Z,84.10
2019-02-18T03:16:35.356Z,84.40
2019-02-18T03:20:40.368Z,84.80
2019-02-18T03:25:11.014Z,84.40
2019-02-18T03:29:33.572Z,83.50
2019-02-18T03:33:47.765Z,82.50
2019-02-18T03:37:52.766Z,81.90
2019-02-18T03:41:57.988Z,81.30
2019-02-18T03:46:03.087Z,81.20
2019-02-18T03:50:08.083Z,80.90
2019-02-18T03:54:14.052Z,81.10
2019-02-18T03:58:19.073Z,81.40
2019-02-18T04:02:24.034Z,81.80
2019-02-18T04:06:29.028Z,82.50
2019-02-18T04:10:34.033Z,83.50
2019-02-18T04:14:39.045Z,84.70
2019-02-18T04:18:44.068Z,85.10
2019-02-18T04:22:49.051Z,85.60
2019-02-18T04:26:54.061Z,85.90
2019-02-18T04:30:59.171Z,86.00
2019-02-18T04:35:04.756Z,86.20
2019-02-18T04:39:09.768Z,86.80
2019-02-18T04:43:14.796Z,87.10
2019-02-18T04:47:19.784Z,87.50
2019-02-18T04:51:24.800Z,88.10
2019-02-18T04:55:29.817Z,88.30
2019-02-18T04:59:34.820Z,87.40
2019-02-18T05:03:39.824Z,86.70
2019-02-18T05:07:44.815Z,86.60
2019-02-18T05:11:49.836Z,86.30
2019-02-18T05:15:54.869Z,86.80
2019-02-18T05:19:59.875Z,87.10
2019-02-18T05:24:05.001Z,87.20
2019-02-18T05:28:09.992Z,87.10
2019-02-18T05:32:15.007Z,86.60
2019-02-18T05:36:20.011Z,86.80
2019-02-18T05:40:25.066Z,87.00
2019-02-18T05:44:30.108Z,88.00
2019-02-18T05:48:35.133Z,87.40
2019-02-18T05:52:40.120Z,87.10
2019-02-18T05:56:45.124Z,87.10
2019-02-18T06:00:50.138Z,87.70
2019-02-18T06:04:55.145Z,87.00
2019-02-18T06:09:00.159Z,86.40
2019-02-18T06:13:08.741Z,85.70
2019-02-18T06:17:14.145Z,84.70
2019-02-18T06:21:19.143Z,83.60
2019-02-18T06:25:24.172Z,83.90
2019-02-18T06:29:29.259Z,84.60
2019-02-18T06:33:34.252Z,84.60
2019-02-18T06:37:39.260Z,84.40
2019-02-18T06:41:44.278Z,83.50
2019-02-18T06:45:56.665Z,82.20
2019-02-18T06:50:01.673Z,76.20
2019-02-18T06:54:06.749Z,63.30
2019-02-18T06:58:28.730Z,56.30
2019-02-18T07:02:38.091Z,53.30
2019-02-18T07:06:48.195Z,49.50
2019-02-18T07:10:55.080Z,43.70
2019-02-18T07:15:00.363Z,38.80
2019-02-18T07:19:05.634Z,35.30
2019-02-18T07:23:10.928Z,33.40
2019-02-18T07:27:16.289Z,30.40
2019-02-18T07:31:21.996Z,29.70
2019-02-18T07:35:27.708Z,27.90
2019-02-18T07:39:32.993Z,26.50
2019-02-18T07:43:38.264Z,25.40
2019-02-18T07:47:43.567Z,24.20
2019-02-18T07:51:48.860Z,23.70
2019-02-18T07:55:54.148Z,23.60
2019-02-18T07:59:59.436Z,23.10
2019-02-18T08:04:04.723Z,22.60
2019-02-18T08:08:10.007Z,22.00
2019-02-18T08:12:15.297Z,21.00
2019-02-18T08:16:20.600Z,20.60
2019-02-18T08:20:25.892Z,20.10
2019-02-18T08:24:31.213Z,19.90
2019-02-18T08:28:36.569Z,19.50
2019-02-18T08:32:41.876Z,18.80
2019-02-18T08:36:47.148Z,18.60
2019-02-18T08:40:53.525Z,18.40
2019-02-18T08:44:58.802Z,19.50
2019-02-18T08:49:04.072Z,19.40
2019-02-18T08:53:09.363Z,18.30
2019-02-18T08:57:14.681Z,18.20
2019-02-18T09:01:19.989Z,17.80
2019-02-18T09:05:25.260Z,17.70
2019-02-18T09:09:30.591Z,18.00
2019-02-18T09:13:35.891Z,17.40
2019-02-18T09:17:41.251Z,17.00
2019-02-18T09:21:47.876Z,17.30
2019-02-18T09:25:53.563Z,16.90
2019-02-18T09:29:59.786Z,16.80
2019-02-18T09:34:05.109Z,16.60
2019-02-18T09:38:10.393Z,16.40
2019-02-18T09:42:15.718Z,17.30
2019-02-18T09:46:20.980Z,17.10
2019-02-18T09:50:26.264Z,16.90
2019-02-18T09:54:31.553Z,17.00
2019-02-18T09:58:36.835Z,17.60
2019-02-18T10:02:42.157Z,16.70
2019-02-18T10:06:47.480Z,16.50
2019-02-18T10:10:55.915Z,16.60
2019-02-18T10:14:59.686Z,16.70
2019-02-18T10:19:05.162Z,16.20
2019-02-18T10:23:10.438Z,16.10
2019-02-18T10:27:15.737Z,16.30
2019-02-18T10:31:21.024Z,16.90
2019-02-18T10:35:26.564Z,16.60
2019-02-18T10:39:31.984Z,17.50
2019-02-18T10:43:37.273Z,17.60
2019-02-18T10:47:42.590Z,17.20
2019-02-18T10:51:47.863Z,16.20
2019-02-18T10:55:53.211Z,16.40
2019-02-18T10:59:59.296Z,16.40
2019-02-18T11:04:04.947Z,16.30
2019-02-18T11:08:10.239Z,16.10
2019-02-18T11:12:15.519Z,16.70
2019-02-18T11:16:20.809Z,16.90
2019-02-18T11:20:26.104Z,16.00
2019-02-18T11:24:31.415Z,15.70
2019-02-18T11:28:36.711Z,16.60
2019-02-18T11:32:42.073Z,16.50
2019-02-18T11:36:47.364Z,15.70
2019-02-18T11:40:52.731Z,15.80
2019-02-18T11:44:58.036Z,17.00
2019-02-18T11:49:03.639Z,15.00
2019-02-18T11:53:08.984Z,16.20
2019-02-18T11:57:14.293Z,16.90
2019-02-18T12:01:19.579Z,17.00
2019-02-18T12:05:24.927Z,16.80
2019-02-18T12:09:30.217Z,17.00
2019-02-18T12:13:35.505Z,16.90
2019-02-18T12:17:40.930Z,17.70
2019-02-18T12:21:46.301Z,17.80
2019-02-18T12:25:51.959Z,18.60
2019-02-18T12:29:57.257Z,18.70
2019-02-18T12:34:02.543Z,19.90
2019-02-18T12:38:07.868Z,20.90
2019-02-18T12:42:13.236Z,21.70
2019-02-18T12:46:18.969Z,22.80
2019-02-18T12:50:25.225Z,24.50
2019-02-18T12:54:31.157Z,25.00
2019-02-18T12:58:36.446Z,25.90
2019-02-18T13:02:44.688Z,26.40
2019-02-18T13:06:49.275Z,26.30
2019-02-18T13:10:54.668Z,25.90
2019-02-18T13:15:00.005Z,26.00
2019-02-18T13:19:05.292Z,26.60
2019-02-18T13:23:10.607Z,27.00
2019-02-18T13:27:15.964Z,26.80
2019-02-18T13:31:21.226Z,27.40
2019-02-18T13:35:26.519Z,27.30
2019-02-18T13:39:31.813Z,27.10
2019-02-18T13:43:37.284Z,27.30
2019-02-18T13:47:42.572Z,27.30
2019-02-18T13:51:54.713Z,26.90
2019-02-18T13:55:55.735Z,27.00
2019-02-18T14:00:01.094Z,27.50
2019-02-18T14:04:08.060Z,27.30
2019-02-18T14:08:13.385Z,27.40
2019-02-18T14:12:18.646Z,27.50
2019-02-18T14:16:23.936Z,27.30
2019-02-18T14:20:29.219Z,27.40
2019-02-18T14:24:34.811Z,27.90
2019-02-18T14:28:40.092Z,28.10
2019-02-18T14:32:45.605Z,28.30
2019-02-18T14:36:50.843Z,29.70
2019-02-18T14:40:57.527Z,29.70
2019-02-18T14:45:02.884Z,30.00
2019-02-18T14:49:08.180Z,34.40
2019-02-18T14:53:13.919Z,35.60
2019-02-18T14:57:19.380Z,36.40
2019-02-18T15:01:24.752Z,37.00
2019-02-18T15:05:30.064Z,37.10
2019-02-18T15:09:35.398Z,37.20
2019-02-18T15:13:40.683Z,37.50
2019-02-18T15:17:45.956Z,38.30
2019-02-18T15:21:51.256Z,38.60
2019-02-18T15:25:56.554Z,38.90
2019-02-18T15:30:02.065Z,39.10
2019-02-18T15:34:07.431Z,39.60
2019-02-18T15:38:12.749Z,40.00
2019-02-18T15:42:18.059Z,40.30
2019-02-18T15:46:23.383Z,40.60
2019-02-18T15:50:28.818Z,41.10
2019-02-18T15:54:34.150Z,41.50
2019-02-18T15:58:41.767Z,42.10
2019-02-18T16:02:46.765Z,42.40
2019-02-18T16:06:52.102Z,42.70
2019-02-18T16:10:57.351Z,42.90
2019-02-18T16:15:02.667Z,43.10
2019-02-18T16:19:09.043Z,41.40
2019-02-18T16:23:14.310Z,40.10
2019-02-18T16:27:19.596Z,39.00
2019-02-18T16:31:24.903Z,40.10
2019-02-18T16:35:30.192Z,38.20
2019-02-18T16:39:35.755Z,38.30
2019-02-18T16:43:41.429Z,38.00
2019-02-18T16:47:47.543Z,38.70
2019-02-18T16:51:52.960Z,38.80
2019-02-18T16:55:58.300Z,38.30
2019-02-18T17:00:07.518Z,39.10
2019-02-18T17:04:13.863Z,41.40
2019-02-18T17:08:20.200Z,37.20
2019-02-18T17:12:25.492Z,36.30
2019-02-18T17:16:31.140Z,36.50
2019-02-18T17:20:36.541Z,37.90
2019-02-18T17:24:41.957Z,39.20
2019-02-18T17:28:47.570Z,39.00
2019-02-18T17:32:52.955Z,39.10
2019-02-18T17:36:59.005Z,38.20
2019-02-18T17:41:04.504Z,38.50
2019-02-18T17:45:15.734Z,40.20
2019-02-18T17:49:21.008Z,41.50
2019-02-18T17:53:26.356Z,43.00
2019-02-18T17:57:31.700Z,44.00
2019-02-18T18:01:37.203Z,42.10
2019-02-18T18:05:42.515Z,42.50
2019-02-18T18:09:47.820Z,44.40
2019-02-18T18:13:52.779Z,44.50
2019-02-18T18:17:58.307Z,45.70
2019-02-18T18:22:03.931Z,44.60
2019-02-18T18:26:09.144Z,44.20
2019-02-18T18:30:18.362Z,43.80
2019-02-18T18:34:23.629Z,44.40
2019-02-18T18:38:28.703Z,44.90
2019-02-18T18:42:33.784Z,45.00
2019-02-18T18:46:38.788Z,46.00
2019-02-18T18:50:45.611Z,45.80
2019-02-18T18:54:50.623Z,45.90
2019-02-18T18:58:56.024Z,46.10
2019-02-18T19:03:02.100Z,46.10
2019-02-18T19:07:07.387Z,46.90
2019-02-18T19:11:12.391Z,47.90
2019-02-18T19:15:18.398Z,49.80
2019-02-18T19:19:23.459Z,50.10
2019-02-18T19:23:28.446Z,51.40
2019-02-18T19:27:33.660Z,51.60
2019-02-18T19:31:38.658Z,51.00
2019-02-18T19:35:43.667Z,50.10
2019-02-18T19:39:48.661Z,49.90
2019-02-18T19:43:53.655Z,48.80
2019-02-18T19:47:58.680Z,49.10
2019-02-18T19:52:03.678Z,49.40
2019-02-18T19:56:09.083Z,49.50
2019-02-18T20:00:17.007Z,49.50
2019-02-18T20:04:21.987Z,50.70
2019-02-18T20:08:26.984Z,52.50
2019-02-18T20:12:31.999Z,54.40
2019-02-18T20:16:36.995Z,56.50
2019-02-18T20:20:42.003Z,57.50
2019-02-18T20:24:48.256Z,57.90
2019-02-18T20:28:53.283Z,58.20
2019-02-18T20:32:58.288Z,56.90
2019-02-18T20:37:03.301Z,55.50
2019-02-18T20:41:08.304Z,55.10
2019-02-18T20:45:14.125Z,55.00
2019-02-18T20:49:19.125Z,54.40
2019-02-18T20:53:26.283Z,55.50
2019-02-18T20:57:31.244Z,56.80
2019-02-18T21:01:36.268Z,57.30
2019-02-18T21:05:41.243Z,57.40
2019-02-18T21:09:46.252Z,57.60
2019-02-18T21:13:51.253Z,57.90
2019-02-18T21:17:56.417Z,58.10
2019-02-18T21:22:01.404Z,58.00
2019-02-18T21:26:07.481Z,57.90
2019-02-18T21:30:16.743Z,58.60
2019-02-18T21:34:21.851Z,59.40
2019-02-18T21:38:26.861Z,59.20
2019-02-18T21:42:31.859Z,59.40
2019-02-18T21:46:36.880Z,59.00
2019-02-18T21:50:42.005Z,60.30
2019-02-18T21:54:46.948Z,59.80
2019-02-18T21:58:52.243Z,60.40
2019-02-18T22:02:57.253Z,60.80
2019-02-18T22:07:02.307Z,61.20
2019-02-18T22:11:07.295Z,61.50
2019-02-18T22:15:14.135Z,62.00
2019-02-18T22:19:19.155Z,62.80
2019-02-18T22:23:24.159Z,62.90
2019-02-18T22:27:29.159Z,63.20
2019-02-18T22:31:34.163Z,63.60
2019-02-18T22:35:39.151Z,64.60
2019-02-18T22:39:44.202Z,65.80
2019-02-18T22:43:49.563Z,66.70
2019-02-18T22:47:54.563Z,67.80
2019-02-18T22:51:59.563Z,68.40
2019-02-18T22:56:04.546Z,69.50
2019-02-18T23:00:15.675Z,69.20
2019-02-18T23:04:22.284Z,70.10
2019-02-18T23:08:27.286Z,70.10
2019-02-18T23:12:32.288Z,70.70
2019-02-18T23:16:37.283Z,71.00
2019-02-18T23:20:42.598Z,71.70
2019-02-18T23:24:47.592Z,71.70
2019-02-18T23:28:52.599Z,71.50
2019-02-18T23:32:58.695Z,72.00
2019-02-18T23:37:03.742Z,71.10
2019-02-18T23:41:08.738Z,71.10
2019-02-18T23:45:13.748Z,71.90
2019-02-18T23:49:18.751Z,72.10
2019-02-18T23:53:23.818Z,72.60
2019-02-18T23:57:29.360Z,73.30
